Time;durP1;ratioP1;P1;durP2;ratioP2;P2;SDS_P1;SDS_P2;PMS_P1;PMS_P2;Temp;Humidity;BMP_temperature;BMP_pressure;BME280_temperature;BME280_humidity;BME280_pressure;Samples;Min_cycle;Max_cycle;Signal;HPM_P1;HPM_P2
2024/04/19 04:07:07;;;;;;;1.33;1.23;;;6.50;97.30;;;;;;5339378;26;20576;-87
2024/04/19 04:13:08;;;;;;;0.97;0.87;;;6.50;97.30;;;;;;5163325;27;20673;-89
2024/04/19 04:20:08;;;;;;;0.93;0.83;;;6.50;97.30;;;;;;5022928;28;20514;-86
2024/04/19 04:22:49;;;;;;;1.00;0.90;;;6.50;97.30;;;;;;5045459;28;20549;-87
2024/04/19 04:26:28;;;;;;;1.57;1.50;;;6.50;97.30;;;;;;5031405;28;21065;-86
2024/04/19 04:28:38;;;;;;;1.00;0.90;;;6.50;97.30;;;;;;4945295;28;20532;-88
2024/04/19 04:31:57;;;;;;;1.90;1.80;;;6.50;97.30;;;;;;4955201;28;20494;-87
2024/04/19 04:35:18;;;;;;;4.97;2.77;;;6.50;97.30;;;;;;4852789;29;20534;-87
2024/04/19 04:38:37;;;;;;;1.20;1.20;;;6.50;97.30;;;;;;4939143;28;21000;-87
2024/04/19 04:41:08;;;;;;;2.07;1.93;;;6.50;97.30;;;;;;5051469;28;20481;-86
2024/04/19 04:43:37;;;;;;;2.30;2.10;;;6.50;97.30;;;;;;5065149;28;20476;-87
2024/04/19 04:46:55;;;;;;;6.53;1.53;;;6.50;97.30;;;;;;5063142;28;20484;-86
2024/04/19 04:49:49;;;;;;;1.00;0.90;;;6.50;97.30;;;;;;4978382;28;20569;-87
2024/04/19 04:53:01;;;;;;;3.03;1.73;;;6.60;97.30;;;;;;4852264;29;20506;-87
2024/04/19 04:59:48;;;;;;;1.60;1.50;;;6.60;97.30;;;;;;4907571;29;20540;-87
2024/04/19 05:02:18;;;;;;;1.20;1.10;;;6.60;97.30;;;;;;4892774;29;20481;-87
2024/04/19 05:15:47;;;;;;;3.23;1.47;;;6.70;97.30;;;;;;4859855;29;20572;-88
2024/04/19 05:18:38;;;;;;;1.10;1.00;;;6.80;97.30;;;;;;4918394;29;20596;-86
2024/04/19 05:21:18;;;;;;;2.87;1.70;;;6.80;97.30;;;;;;4867065;29;20550;-88
2024/04/19 05:27:18;;;;;;;1.00;0.90;;;6.90;97.30;;;;;;4991609;28;20960;-88
2024/04/19 05:30:09;;;;;;;3.13;2.93;;;6.90;97.30;;;;;;5030555;28;20597;-89
2024/04/19 05:33:07;;;;;;;;;;;;;;;;;;;;;
2024/04/19 05:36:28;;;;;;;1.77;1.70;;;6.90;97.30;;;;;;5221796;27;20468;-88
2024/04/19 05:39:28;;;;;;;1.33;1.10;;;7.00;97.30;;;;;;5188390;27;20475;-85
2024/04/19 05:42:08;;;;;;;1.70;1.20;;;7.00;97.30;;;;;;5146668;27;20475;-87
2024/04/19 05:45:38;;;;;;;1.67;1.30;;;7.10;97.30;;;;;;5171295;27;20907;-88
2024/04/19 05:48:29;;;;;;;2.67;1.43;;;7.10;97.30;;;;;;5204597;27;20505;-87
2024/04/19 05:50:54;;;;;;;1.20;1.10;;;7.10;97.30;;;;;;5240905;21;21132;-71
2024/04/19 05:53:20;;;;;;;1.60;1.50;;;7.20;97.30;;;;;;5329887;26;20474;-70
2024/04/19 05:55:46;;;;;;;15.03;2.40;;;7.20;97.30;;;;;;5318149;26;20244;-70
2024/04/19 05:58:12;;;;;;;1.47;1.40;;;7.20;97.30;;;;;;5336501;26;20466;-69
2024/04/19 06:00:38;;;;;;;3.43;1.67;;;7.20;97.30;;;;;;5323036;26;20231;-71
2024/04/19 06:03:04;;;;;;;3.60;2.20;;;7.20;97.30;;;;;;5328115;26;20248;-71
2024/04/19 06:05:30;;;;;;;2.30;2.10;;;7.30;97.30;;;;;;5319300;26;20293;-70
2024/04/19 06:07:56;;;;;;;2.17;1.70;;;7.30;97.30;;;;;;5330330;26;20478;-69
2024/04/19 06:10:21;;;;;;;4.57;2.20;;;7.30;97.30;;;;;;5331538;26;20228;-69
2024/04/19 06:12:47;;;;;;;6.30;2.10;;;7.30;97.30;;;;;;5330666;26;20461;-70
2024/04/19 06:15:12;;;;;;;1.27;1.17;;;7.30;97.30;;;;;;5330314;26;20270;-69
2024/04/19 06:17:38;;;;;;;1.13;1.13;;;7.30;97.30;;;;;;5316860;26;20292;-70
2024/04/19 06:20:04;;;;;;;1.00;0.90;;;7.40;97.30;;;;;;5335259;26;21616;-71
2024/04/19 06:22:29;;;;;;;1.47;1.37;;;7.40;97.30;;;;;;5322453;26;20244;-69
2024/04/19 06:24:56;;;;;;;6.63;2.10;;;7.40;97.30;;;;;;5314275;26;20475;-70
2024/04/19 06:27:22;;;;;;;4.10;1.40;;;7.40;97.30;;;;;;5327844;26;20726;-70
2024/04/19 06:29:49;;;;;;;1.60;1.50;;;7.30;97.30;;;;;;5328525;26;20518;-69
2024/04/19 06:32:15;;;;;;;1.17;1.07;;;7.30;97.30;;;;;;5327636;26;20846;-70
2024/04/19 06:34:40;;;;;;;3.00;2.80;;;7.20;97.30;;;;;;5328923;26;20969;-70
2024/04/19 06:37:06;;;;;;;1.53;1.47;;;7.20;97.30;;;;;;5329598;26;20227;-68
2024/04/19 06:39:31;;;;;;;1.60;1.50;;;7.20;97.30;;;;;;5324479;26;20247;-70
2024/04/19 06:41:57;;;;;;;1.30;1.20;;;7.20;97.30;;;;;;5334507;26;20723;-70
2024/04/19 06:44:23;;;;;;;1.43;1.40;;;7.20;97.30;;;;;;5324607;26;20353;-69
2024/04/19 06:46:49;;;;;;;1.33;1.23;;;7.10;97.30;;;;;;5324001;26;20286;-68
2024/04/19 06:49:15;;;;;;;1.17;1.07;;;7.10;97.30;;;;;;5328270;26;20742;-67
2024/04/19 06:51:40;;;;;;;3.20;2.80;;;7.10;97.30;;;;;;5319466;26;20712;-70
2024/04/19 06:54:06;;;;;;;2.23;2.03;;;7.10;97.30;;;;;;5332472;26;20597;-70
2024/04/19 06:56:31;;;;;;;1.30;1.20;;;7.00;97.30;;;;;;5338269;26;20231;-69
2024/04/19 06:58:57;;;;;;;1.47;1.37;;;7.00;97.30;;;;;;5325656;26;20228;-70
2024/04/19 07:01:23;;;;;;;1.80;1.30;;;7.10;97.30;;;;;;5333662;26;20722;-71
2024/04/19 07:03:51;;;;;;;1.43;1.33;;;7.10;97.30;;;;;;5342620;26;20312;-67
2024/04/19 07:06:17;;;;;;;1.50;1.40;;;7.10;97.30;;;;;;5317193;26;20970;-71
2024/04/19 07:08:42;;;;;;;4.40;3.70;;;7.10;97.30;;;;;;5313529;26;20569;-69
2024/04/19 07:11:08;;;;;;;1.53;1.30;;;7.10;97.30;;;;;;5324346;26;20232;-70
2024/04/19 07:13:34;;;;;;;1.20;1.10;;;7.10;97.30;;;;;;5305480;26;20231;-65
2024/04/19 07:15:59;;;;;;;4.33;2.27;;;7.20;97.30;;;;;;5331114;26;20246;-66
2024/04/19 07:18:25;;;;;;;1.73;1.63;;;7.30;97.30;;;;;;5321085;26;20285;-70
2024/04/19 07:20:51;;;;;;;1.90;1.80;;;7.40;97.30;;;;;;5329054;26;20794;-71
2024/04/19 07:23:18;;;;;;;1.20;1.10;;;7.50;97.30;;;;;;5324651;26;20447;-69
2024/04/19 07:25:43;;;;;;;1.60;1.57;;;7.50;97.30;;;;;;5339124;26;20997;-67
2024/04/19 07:28:09;;;;;;;1.70;1.60;;;7.50;97.30;;;;;;5338740;26;20513;-70
2024/04/19 07:30:36;;;;;;;1.93;1.83;;;7.60;97.30;;;;;;5339152;26;20489;-70
2024/04/19 07:33:02;;;;;;;1.73;1.10;;;7.50;97.30;;;;;;5326782;26;20282;-69
2024/04/19 07:35:27;;;;;;;1.90;1.63;;;7.50;97.30;;;;;;5337174;26;20593;-65
2024/04/19 07:37:53;;;;;;;2.50;1.47;;;7.40;97.30;;;;;;5338766;26;20473;-66
2024/04/19 07:40:19;;;;;;;1.00;0.90;;;7.40;97.30;;;;;;5336911;26;20235;-66
2024/04/19 07:42:45;;;;;;;1.87;1.77;;;7.30;97.30;;;;;;5324204;26;20234;-67
2024/04/19 07:45:11;;;;;;;1.60;1.50;;;7.30;97.30;;;;;;5334968;26;20719;-67
2024/04/19 07:47:37;;;;;;;1.60;1.50;;;7.20;97.30;;;;;;5307955;26;20457;-67
2024/04/19 07:50:03;;;;;;;1.53;1.43;;;7.20;97.30;;;;;;5321092;26;21046;-65
2024/04/19 07:52:29;;;;;;;1.20;1.10;;;7.10;97.30;;;;;;5322640;26;20501;-66
2024/04/19 07:54:55;;;;;;;2.23;1.43;;;7.10;97.30;;;;;;5338547;26;20239;-67
2024/04/19 07:57:20;;;;;;;3.13;2.20;;;7.10;97.30;;;;;;5320302;26;20272;-69
2024/04/19 07:59:46;;;;;;;1.27;1.17;;;7.10;97.30;;;;;;5317463;26;20681;-65
2024/04/19 08:02:11;;;;;;;1.63;1.53;;;7.10;97.30;;;;;;5332942;26;20815;-67
2024/04/19 08:04:37;;;;;;;1.27;1.17;;;7.10;97.30;;;;;;5320281;26;20655;-70
2024/04/19 08:07:02;;;;;;;1.80;1.70;;;7.10;97.30;;;;;;5332226;26;20254;-68
2024/04/19 08:09:28;;;;;;;3.53;1.60;;;7.20;97.30;;;;;;5327970;26;20239;-69
2024/04/19 08:11:53;;;;;;;1.40;1.30;;;7.20;97.30;;;;;;5332304;26;20314;-70
2024/04/19 08:14:19;;;;;;;1.87;1.77;;;7.10;97.30;;;;;;5323667;26;20340;-72
2024/04/19 08:16:44;;;;;;;1.37;1.27;;;7.20;97.30;;;;;;5340128;26;20702;-69
2024/04/19 08:19:10;;;;;;;5.10;2.40;;;7.10;97.30;;;;;;5328135;26;20232;-67
2024/04/19 08:21:36;;;;;;;2.27;1.37;;;7.10;97.30;;;;;;5340814;26;20276;-70
2024/04/19 08:24:03;;;;;;;1.10;1.00;;;7.10;97.30;;;;;;5341464;26;20277;-71
2024/04/19 08:26:28;;;;;;;2.00;1.27;;;7.00;97.30;;;;;;5325819;26;20231;-69
2024/04/19 08:28:54;;;;;;;1.43;1.33;;;7.00;97.30;;;;;;5338880;26;20584;-71
2024/04/19 08:31:19;;;;;;;3.10;2.47;;;6.90;97.30;;;;;;5332228;26;20761;-70
2024/04/19 08:33:45;;;;;;;1.63;1.53;;;6.90;97.30;;;;;;5341265;26;20281;-68
2024/04/19 08:36:11;;;;;;;1.10;1.00;;;6.90;97.30;;;;;;5339931;26;20797;-65
2024/04/19 08:38:36;;;;;;;1.60;1.50;;;6.80;97.30;;;;;;5338531;26;20235;-72
2024/04/19 08:41:03;;;;;;;4.53;1.93;;;6.90;97.30;;;;;;5339315;26;20328;-72
2024/04/19 08:43:33;;;;;;;1.70;1.30;;;6.90;97.30;;;;;;5333986;26;20777;-67
2024/04/19 08:46:00;;;;;;;1.77;1.63;;;6.80;97.30;;;;;;5326887;26;20470;-70
2024/04/19 08:48:27;;;;;;;2.60;1.17;;;6.90;97.30;;;;;;5330830;26;20567;-72
2024/04/19 08:50:56;;;;;;;2.33;2.13;;;6.90;97.30;;;;;;5328090;26;20920;-72
2024/04/19 08:53:24;;;;;;;1.93;1.83;;;7.00;97.30;;;;;;5339137;26;20477;-71
2024/04/19 08:55:51;;;;;;;1.10;1.00;;;7.00;97.30;;;;;;5334130;26;20491;-72
2024/04/19 08:58:18;;;;;;;1.10;1.00;;;7.00;97.30;;;;;;5335961;26;20576;-71
2024/04/19 09:00:44;;;;;;;2.13;1.97;;;7.00;97.30;;;;;;5339896;26;20695;-70
2024/04/19 09:03:10;;;;;;;0.90;0.80;;;7.00;97.30;;;;;;5329303;26;21044;-71
2024/04/19 09:05:36;;;;;;;1.07;0.90;;;6.90;97.30;;;;;;5333908;26;20268;-71
2024/04/19 09:08:01;;;;;;;0.77;0.73;;;6.80;97.30;;;;;;5338327;26;20469;-73
2024/04/19 09:10:27;;;;;;;1.00;0.90;;;6.80;97.30;;;;;;5337461;26;20246;-66
2024/04/19 09:12:53;;;;;;;1.57;1.00;;;6.80;97.30;;;;;;5330604;26;20269;-68
2024/04/19 09:15:19;;;;;;;1.00;0.90;;;6.80;97.30;;;;;;5340780;26;20762;-67
2024/04/19 09:17:49;;;;;;;1.73;1.47;;;6.80;97.30;;;;;;5338512;26;20833;-62
2024/04/19 09:20:14;;;;;;;1.00;0.90;;;6.70;97.30;;;;;;5339425;26;20533;-73
2024/04/19 09:22:40;;;;;;;1.03;0.93;;;6.70;97.30;;;;;;5325816;26;20857;-69
2024/04/19 09:25:06;;;;;;;1.10;1.00;;;6.70;97.30;;;;;;5326819;26;20290;-68
2024/04/19 09:27:31;;;;;;;1.10;1.00;;;6.60;97.30;;;;;;5323223;26;20553;-73
2024/04/19 09:29:57;;;;;;;1.20;1.10;;;6.50;97.30;;;;;;5306549;26;20274;-74
2024/04/19 09:32:23;;;;;;;3.23;1.47;;;6.40;97.30;;;;;;5335926;26;20239;-76
2024/04/19 09:34:49;;;;;;;1.00;0.90;;;6.50;97.30;;;;;;5338846;26;20477;-64
2024/04/19 09:37:15;;;;;;;1.13;1.03;;;6.40;97.30;;;;;;5313956;26;20232;-64
2024/04/19 09:39:40;;;;;;;1.73;1.63;;;6.40;97.30;;;;;;5340246;26;20473;-66
2024/04/19 09:42:08;;;;;;;1.20;1.10;;;6.40;97.30;;;;;;5340691;26;20289;-65
2024/04/19 09:44:33;;;;;;;1.13;1.03;;;6.40;97.30;;;;;;5340087;26;20791;-64
2024/04/19 09:47:04;;;;;;;1.37;1.27;;;6.30;97.30;;;;;;5334029;26;20502;-65
2024/04/19 09:49:31;;;;;;;1.43;1.30;;;6.30;97.30;;;;;;5330172;26;20232;-65
2024/04/19 09:51:57;;;;;;;0.90;0.80;;;6.20;97.30;;;;;;5325659;26;20480;-67
2024/04/19 09:54:31;;;;;;;0.90;0.80;;;6.10;97.30;;;;;;5340507;26;20470;-70
2024/04/19 09:57:01;;;;;;;1.20;1.10;;;6.10;97.30;;;;;;5334517;26;20473;-66
2024/04/19 09:59:29;;;;;;;0.90;0.80;;;6.10;97.30;;;;;;5330329;26;20465;-67
2024/04/19 10:01:56;;;;;;;1.10;1.00;;;6.10;97.30;;;;;;5328627;26;20521;-73
2024/04/19 10:04:24;;;;;;;0.90;0.80;;;6.00;97.30;;;;;;5332466;26;20592;-74
2024/04/19 10:06:52;;;;;;;1.00;0.90;;;6.00;97.30;;;;;;5325642;26;20631;-77
2024/04/19 10:09:20;;;;;;;0.90;0.80;;;6.00;97.30;;;;;;5340129;26;20918;-68
2024/04/19 10:11:50;;;;;;;1.10;1.00;;;5.90;97.30;;;;;;5306407;26;20482;-78
2024/04/19 10:14:16;;;;;;;1.30;1.20;;;5.90;97.30;;;;;;5316758;26;20985;-74
2024/04/19 10:16:42;;;;;;;0.93;0.83;;;5.90;97.30;;;;;;5326030;26;20466;-70
2024/04/19 10:19:11;;;;;;;1.00;0.90;;;5.90;97.30;;;;;;5330858;26;21124;-72
2024/04/19 10:21:39;;;;;;;0.90;0.80;;;5.80;97.30;;;;;;5330291;26;20248;-73
2024/04/19 10:24:15;;;;;;;0.90;0.80;;;5.70;97.30;;;;;;5334825;26;20461;-68
2024/04/19 10:26:40;;;;;;;0.90;0.80;;;5.60;97.30;;;;;;5340395;26;20607;-71
2024/04/19 10:29:06;;;;;;;1.00;0.90;;;5.60;97.30;;;;;;5320522;26;21004;-67
2024/04/19 10:31:34;;;;;;;0.90;0.80;;;5.50;97.30;;;;;;5337842;26;20777;-67
2024/04/19 10:34:00;;;;;;;1.27;1.17;;;5.50;97.30;;;;;;5337822;26;20274;-68
2024/04/19 10:36:31;;;;;;;1.00;0.90;;;5.50;97.30;;;;;;5339597;26;20473;-68
2024/04/19 10:38:58;;;;;;;0.90;0.80;;;5.40;97.30;;;;;;5339816;26;20269;-68
2024/04/19 10:41:24;;;;;;;1.03;0.93;;;5.40;97.30;;;;;;5338012;26;20481;-68
2024/04/19 10:43:52;;;;;;;1.07;1.00;;;5.30;97.30;;;;;;5339303;26;20905;-66
2024/04/19 10:46:18;;;;;;;1.53;1.47;;;5.30;97.30;;;;;;5339865;26;20235;-68
2024/04/19 10:48:45;;;;;;;1.20;1.10;;;5.30;97.30;;;;;;5320052;26;20886;-69
2024/04/19 10:51:13;;;;;;;1.07;1.00;;;5.30;97.30;;;;;;5338113;26;20545;-66
2024/04/19 10:53:39;;;;;;;1.00;0.90;;;5.30;97.30;;;;;;5327497;26;21116;-69
2024/04/19 10:56:05;;;;;;;0.90;0.80;;;5.30;97.30;;;;;;5328573;26;20998;-67
2024/04/19 10:58:33;;;;;;;1.00;0.90;;;5.30;97.30;;;;;;5333290;26;20900;-70
2024/04/19 11:00:59;;;;;;;1.00;0.90;;;5.20;97.30;;;;;;5326152;26;20489;-68
2024/04/19 11:03:26;;;;;;;1.10;1.10;;;5.20;97.30;;;;;;5339178;26;20797;-66
2024/04/19 11:05:52;;;;;;;0.93;0.83;;;5.20;97.30;;;;;;5325511;26;20767;-69
2024/04/19 11:08:19;;;;;;;0.97;0.87;;;5.20;97.30;;;;;;5324909;26;20470;-69
2024/04/19 11:10:45;;;;;;;1.00;0.90;;;5.10;97.30;;;;;;5316942;26;20534;-71
2024/04/19 11:13:14;;;;;;;3.30;2.70;;;5.10;97.30;;;;;;5337904;26;20462;-70
2024/04/19 11:15:40;;;;;;;0.83;0.73;;;5.10;97.30;;;;;;5332169;26;20506;-75
2024/04/19 11:18:08;;;;;;;0.90;0.80;;;5.10;97.30;;;;;;5319461;26;20887;-75
2024/04/19 11:20:35;;;;;;;0.90;0.80;;;5.10;97.30;;;;;;5333302;26;20562;-75
2024/04/19 11:23:02;;;;;;;0.90;0.80;;;5.20;97.30;;;;;;5331463;26;20470;-74
2024/04/19 11:25:29;;;;;;;0.93;0.83;;;5.10;97.30;;;;;;5317424;26;20477;-70
2024/04/19 11:27:55;;;;;;;1.10;1.00;;;5.10;97.30;;;;;;5339213;26;20530;-72
2024/04/19 11:30:21;;;;;;;0.90;0.80;;;5.00;97.30;;;;;;5327562;26;20473;-76
2024/04/19 11:32:51;;;;;;;1.20;1.10;;;5.00;97.30;;;;;;5355300;21;20710;-86
2024/04/19 11:35:18;;;;;;;0.90;0.80;;;5.00;97.30;;;;;;5310560;26;20517;-88
2024/04/19 11:37:49;;;;;;;1.00;0.90;;;5.00;97.30;;;;;;5306335;26;20485;-87
2024/04/19 11:40:20;;;;;;;0.83;0.73;;;5.00;97.30;;;;;;5284756;27;20466;-85
2024/04/19 11:42:46;;;;;;;1.20;1.10;;;5.00;97.30;;;;;;5308484;26;20487;-87
2024/04/19 11:45:12;;;;;;;0.90;0.80;;;5.10;97.30;;;;;;5299269;26;20475;-84
2024/04/19 11:47:38;;;;;;;1.00;0.90;;;5.20;97.30;;;;;;5311029;26;20590;-85
2024/04/19 11:50:04;;;;;;;0.90;0.80;;;5.20;97.30;;;;;;5301780;26;20232;-88
2024/04/19 11:52:29;;;;;;;0.90;0.80;;;5.30;97.30;;;;;;5306676;26;20256;-85
2024/04/19 11:54:55;;;;;;;1.00;0.90;;;5.50;97.30;;;;;;5340228;26;20922;-86
2024/04/19 11:57:20;;;;;;;0.90;0.80;;;5.50;97.30;;;;;;5300413;26;20305;-85
2024/04/19 11:59:46;;;;;;;0.90;0.80;;;5.60;97.30;;;;;;5308643;26;20228;-86
2024/04/19 12:02:11;;;;;;;0.90;0.80;;;5.70;97.30;;;;;;5282859;26;20635;-85
2024/04/19 12:04:37;;;;;;;0.90;0.80;;;5.70;97.30;;;;;;5305110;26;20593;-85
2024/04/19 12:07:02;;;;;;;1.37;1.27;;;5.70;97.30;;;;;;5340987;26;20588;-85
2024/04/19 12:09:28;;;;;;;1.07;0.97;;;5.80;97.30;;;;;;5302669;26;20770;-85
2024/04/19 12:11:54;;;;;;;2.43;2.27;;;5.90;97.30;;;;;;5307609;26;20243;-85
2024/04/19 12:14:19;;;;;;;0.90;0.80;;;5.90;97.30;;;;;;5279817;26;20556;-85
2024/04/19 12:16:44;;;;;;;1.00;0.90;;;5.90;97.30;;;;;;5349395;26;20253;-85
2024/04/19 12:19:11;;;;;;;0.90;0.80;;;6.00;97.30;;;;;;5292139;26;20280;-84
2024/04/19 12:21:36;;;;;;;1.10;1.00;;;6.00;97.30;;;;;;5304057;26;20248;-85
2024/04/19 12:24:02;;;;;;;1.13;1.03;;;6.00;97.30;;;;;;5335900;26;20870;-84
2024/04/19 12:26:27;;;;;;;1.10;1.00;;;6.10;97.30;;;;;;5309286;26;20276;-86
2024/04/19 12:28:53;;;;;;;1.07;0.97;;;6.30;97.30;;;;;;5289103;26;20244;-85
2024/04/19 12:31:19;;;;;;;1.00;0.90;;;6.40;97.30;;;;;;5298988;26;20691;-84
2024/04/19 12:33:44;;;;;;;1.00;0.90;;;6.80;97.30;;;;;;5289752;26;20320;-85
2024/04/19 12:36:10;;;;;;;0.90;0.80;;;6.90;97.30;;;;;;5285377;26;20266;-84
2024/04/19 12:38:35;;;;;;;2.33;2.17;;;6.90;97.30;;;;;;5298879;26;20240;-85
2024/04/19 12:41:01;;;;;;;1.00;0.90;;;7.00;97.30;;;;;;5306917;26;20248;-85
2024/04/19 12:43:26;;;;;;;0.93;0.83;;;7.10;97.30;;;;;;5306038;26;20675;-86
2024/04/19 12:45:52;;;;;;;0.80;0.70;;;7.10;97.30;;;;;;5338679;26;20279;-85
2024/04/19 12:48:19;;;;;;;0.90;0.80;;;7.20;97.30;;;;;;5297024;26;20270;-85
2024/04/19 12:50:44;;;;;;;1.00;0.90;;;7.10;97.30;;;;;;5298307;26;20318;-84
2024/04/19 12:53:11;;;;;;;1.47;1.30;;;7.30;97.30;;;;;;5307971;26;20913;-85
2024/04/19 12:55:36;;;;;;;0.90;0.80;;;7.40;97.30;;;;;;5284981;26;20350;-84
2024/04/19 12:58:02;;;;;;;4.60;1.53;;;7.70;97.30;;;;;;5289831;26;20471;-85
2024/04/19 13:00:30;;;;;;;0.90;0.80;;;7.70;97.30;;;;;;5300788;26;20252;-85
2024/04/19 13:02:56;;;;;;;1.00;0.90;;;7.90;97.30;;;;;;5336720;26;20636;-84
2024/04/19 13:05:22;;;;;;;1.17;1.00;;;7.80;97.30;;;;;;5288997;26;20468;-85
2024/04/19 13:07:48;;;;;;;1.00;0.90;;;7.80;97.30;;;;;;5307318;26;20235;-83
2024/04/19 13:10:15;;;;;;;1.20;1.10;;;7.90;97.30;;;;;;5289822;26;21097;-84
2024/04/19 13:12:42;;;;;;;0.90;0.80;;;8.00;97.30;;;;;;5294748;26;20681;-85
2024/04/19 13:15:08;;;;;;;0.97;0.93;;;8.00;97.30;;;;;;5301873;26;20515;-84
2024/04/19 13:17:37;;;;;;;0.90;0.80;;;8.10;97.30;;;;;;5302111;26;20463;-84
2024/04/19 13:20:02;;;;;;;1.53;1.50;;;8.00;97.30;;;;;;5292186;26;20360;-83
2024/04/19 13:22:28;;;;;;;0.80;0.70;;;8.00;97.30;;;;;;5300287;26;20483;-84
2024/04/19 13:24:54;;;;;;;0.90;0.80;;;8.10;97.30;;;;;;5305584;26;20467;-84
2024/04/19 13:27:19;;;;;;;1.57;1.47;;;8.10;97.30;;;;;;5283877;26;20532;-83
2024/04/19 13:29:45;;;;;;;1.00;0.90;;;8.10;97.30;;;;;;5298114;26;20243;-84
2024/04/19 13:32:11;;;;;;;0.90;0.80;;;8.10;97.30;;;;;;5292332;26;20746;-84
2024/04/19 13:34:36;;;;;;;1.00;0.90;;;8.10;97.30;;;;;;5348981;26;20302;-84
2024/04/19 13:37:03;;;;;;;2.10;1.53;;;8.10;97.30;;;;;;5305218;26;20319;-84
2024/04/19 13:39:29;;;;;;;0.80;0.70;;;8.20;97.30;;;;;;5279494;26;20283;-84
2024/04/19 13:41:54;;;;;;;1.37;1.27;;;8.30;97.30;;;;;;5305108;26;20470;-83
2024/04/19 13:44:20;;;;;;;0.97;0.87;;;8.20;97.30;;;;;;5298671;26;20834;-85
2024/04/19 13:46:46;;;;;;;0.90;0.80;;;8.10;97.30;;;;;;5288115;26;20587;-84
2024/04/19 13:49:12;;;;;;;1.00;0.93;;;8.00;97.30;;;;;;5295100;26;20239;-84
2024/04/19 13:51:37;;;;;;;0.97;0.87;;;8.00;97.30;;;;;;5295884;26;20555;-83
2024/04/19 13:54:03;;;;;;;1.00;0.90;;;8.00;97.30;;;;;;5302046;26;20228;-83
2024/04/19 13:56:30;;;;;;;1.33;1.07;;;8.00;97.30;;;;;;5304208;26;20235;-83
2024/04/19 13:58:57;;;;;;;1.00;0.90;;;8.00;97.30;;;;;;5311078;26;20248;-83
2024/04/19 14:01:23;;;;;;;0.90;0.80;;;8.00;97.30;;;;;;5298355;26;20476;-84
2024/04/19 14:03:54;;;;;;;0.90;0.90;;;7.90;97.30;;;;;;5302147;26;20557;-83
2024/04/19 14:06:20;;;;;;;0.90;0.80;;;7.90;97.30;;;;;;5295345;26;20718;-83
2024/04/19 14:08:48;;;;;;;1.40;1.30;;;7.80;97.30;;;;;;5308030;26;20481;-84
2024/04/19 14:11:14;;;;;;;0.80;0.70;;;7.80;97.30;;;;;;5299802;26;20539;-85
2024/04/19 14:13:39;;;;;;;0.90;0.80;;;7.90;97.30;;;;;;5302027;26;20470;-84
2024/04/19 14:16:05;;;;;;;1.03;0.93;;;8.00;97.30;;;;;;5296326;26;20232;-84
2024/04/19 14:18:30;;;;;;;0.90;0.80;;;8.10;97.30;;;;;;5306911;26;20343;-83
2024/04/19 14:20:56;;;;;;;1.40;1.30;;;8.30;97.30;;;;;;5294273;26;20244;-83
2024/04/19 14:23:21;;;;;;;1.00;0.90;;;8.40;97.30;;;;;;5302117;26;20228;-84
2024/04/19 14:25:47;;;;;;;1.10;1.00;;;8.50;97.30;;;;;;5303342;26;20718;-85
2024/04/19 14:28:13;;;;;;;1.10;1.00;;;8.50;97.30;;;;;;5300100;26;20267;-84
2024/04/19 14:30:38;;;;;;;0.90;0.80;;;8.50;97.30;;;;;;5318585;26;20788;-84
2024/04/19 14:33:04;;;;;;;1.83;0.90;;;8.50;97.30;;;;;;5305859;26;20271;-85
2024/04/19 14:35:30;;;;;;;0.80;0.70;;;8.50;97.30;;;;;;5301988;26;20271;-84
2024/04/19 14:37:55;;;;;;;1.03;0.93;;;8.50;97.30;;;;;;5300690;26;21013;-83
2024/04/19 14:40:21;;;;;;;1.00;0.90;;;8.50;97.30;;;;;;5295330;26;20739;-84
2024/04/19 14:42:46;;;;;;;1.10;1.00;;;8.60;97.30;;;;;;5287246;26;20304;-84
2024/04/19 14:45:12;;;;;;;0.80;0.70;;;8.70;97.30;;;;;;5291150;26;20274;-84
2024/04/19 14:47:38;;;;;;;0.90;0.80;;;8.70;97.30;;;;;;5306936;26;20235;-85
2024/04/19 14:50:04;;;;;;;1.00;0.90;;;8.80;97.30;;;;;;5292953;26;20231;-84
2024/04/19 14:52:29;;;;;;;0.83;0.73;;;8.80;97.30;;;;;;5282536;26;20245;-84
2024/04/19 14:54:54;;;;;;;1.30;1.20;;;8.80;97.30;;;;;;5302794;26;20236;-84
2024/04/19 14:57:20;;;;;;;0.93;0.83;;;8.90;97.30;;;;;;5310848;26;20228;-85
2024/04/19 14:59:46;;;;;;;1.10;1.00;;;8.90;97.30;;;;;;5294263;26;20240;-84
2024/04/19 15:02:11;;;;;;;1.00;0.90;;;8.90;97.30;;;;;;5294258;26;20240;-85
2024/04/19 15:04:37;;;;;;;1.50;1.40;;;8.90;97.30;;;;;;5308160;26;20322;-85
2024/04/19 15:07:03;;;;;;;4.10;2.40;;;8.90;97.30;;;;;;5292906;26;20570;-85
2024/04/19 15:09:29;;;;;;;1.00;0.90;;;8.90;97.30;;;;;;5284600;26;20239;-85
2024/04/19 15:11:55;;;;;;;0.80;0.70;;;8.90;97.30;;;;;;5294051;26;21117;-85
2024/04/19 15:14:20;;;;;;;1.17;1.17;;;8.90;97.30;;;;;;5306264;26;20228;-84
2024/04/19 15:16:48;;;;;;;0.93;0.83;;;8.90;97.30;;;;;;5294270;26;20303;-84
2024/04/19 15:19:14;;;;;;;0.90;0.80;;;8.80;97.30;;;;;;5280026;26;20236;-84
2024/04/19 15:21:39;;;;;;;1.00;0.90;;;8.80;97.30;;;;;;5287146;26;20595;-85
2024/04/19 15:24:05;;;;;;;1.37;0.90;;;8.70;97.30;;;;;;5277471;26;20471;-82
2024/04/19 15:26:31;;;;;;;1.00;0.90;;;8.80;97.30;;;;;;5294764;26;20280;-85
2024/04/19 15:28:56;;;;;;;1.00;0.90;;;9.10;97.30;;;;;;5289948;26;20330;-85
2024/04/19 15:31:22;;;;;;;0.90;0.80;;;9.40;97.30;;;;;;5293150;26;20620;-85
2024/04/19 15:33:47;;;;;;;1.67;1.57;;;9.70;97.30;;;;;;5287711;26;20262;-85
2024/04/19 15:36:13;;;;;;;1.00;0.90;;;9.80;97.30;;;;;;5278675;26;20239;-85
2024/04/19 15:38:41;;;;;;;1.67;1.27;;;9.60;97.30;;;;;;5288663;26;20252;-84
2024/04/19 15:41:07;;;;;;;0.87;0.80;;;9.40;97.30;;;;;;5304501;26;20270;-85
2024/04/19 15:43:35;;;;;;;1.63;1.53;;;9.20;97.30;;;;;;5296904;26;20996;-84
2024/04/19 15:46:02;;;;;;;1.07;0.97;;;9.00;97.30;;;;;;5304231;26;20331;-84
2024/04/19 15:48:27;;;;;;;2.70;0.93;;;9.00;97.30;;;;;;5298913;26;20484;-84
2024/04/19 15:50:53;;;;;;;0.90;0.80;;;8.90;97.30;;;;;;5307374;26;20893;-84
2024/04/19 15:53:18;;;;;;;0.70;0.70;;;8.80;97.30;;;;;;5308558;26;20284;-84
2024/04/19 15:55:45;;;;;;;0.93;0.83;;;8.80;97.30;;;;;;5317904;26;20606;-85
2024/04/19 15:58:11;;;;;;;0.90;0.80;;;8.80;97.30;;;;;;5308186;26;20232;-84
2024/04/19 16:00:37;;;;;;;1.20;1.10;;;8.70;97.30;;;;;;5308051;26;21049;-85
2024/04/19 16:03:03;;;;;;;1.03;0.93;;;8.70;97.30;;;;;;5307989;26;20521;-85
2024/04/19 16:05:30;;;;;;;0.93;0.93;;;8.70;97.30;;;;;;5309375;26;20467;-85
2024/04/19 16:07:55;;;;;;;1.10;1.00;;;8.60;97.30;;;;;;5308455;26;20526;-85
2024/04/19 16:10:21;;;;;;;0.90;0.80;;;8.60;97.30;;;;;;5308159;26;20467;-85
2024/04/19 16:12:46;;;;;;;0.93;0.87;;;8.60;97.30;;;;;;5309561;26;20236;-84
2024/04/19 16:15:12;;;;;;;1.10;1.03;;;8.50;97.30;;;;;;5307780;26;20938;-85
2024/04/19 16:17:37;;;;;;;0.80;0.70;;;8.50;97.30;;;;;;5308400;26;20622;-85
2024/04/19 16:20:03;;;;;;;1.50;1.40;;;8.50;97.30;;;;;;5309699;26;20274;-84
2024/04/19 16:22:28;;;;;;;0.90;0.80;;;8.50;97.30;;;;;;5307869;26;20726;-85
2024/04/19 16:24:54;;;;;;;0.90;0.80;;;8.50;97.30;;;;;;5306684;26;20750;-84
2024/04/19 16:27:21;;;;;;;0.90;0.80;;;8.50;97.30;;;;;;5312607;26;20286;-85
2024/04/19 16:29:47;;;;;;;1.00;0.90;;;8.50;97.30;;;;;;5309500;26;20279;-86
2024/04/19 16:32:13;;;;;;;1.00;0.90;;;8.40;97.30;;;;;;5311040;26;20458;-86
2024/04/19 16:34:38;;;;;;;1.10;0.87;;;8.40;97.30;;;;;;5352919;26;20459;-85
2024/04/19 16:37:04;;;;;;;0.80;0.70;;;8.30;97.30;;;;;;5303633;26;20374;-85
2024/04/19 16:39:29;;;;;;;1.00;0.90;;;8.30;97.30;;;;;;5311454;26;20809;-85
2024/04/19 16:41:55;;;;;;;1.03;1.00;;;8.20;97.30;;;;;;5309467;26;20761;-84
2024/04/19 16:44:20;;;;;;;1.67;1.20;;;8.20;97.30;;;;;;5310470;26;20232;-85
2024/04/19 16:46:46;;;;;;;1.10;1.00;;;8.10;97.30;;;;;;5311957;26;20283;-85
2024/04/19 16:49:11;;;;;;;0.90;0.80;;;8.10;97.30;;;;;;5310512;26;20236;-86
2024/04/19 16:51:37;;;;;;;1.10;1.00;;;8.00;97.30;;;;;;5310168;26;20240;-86
2024/04/19 16:54:05;;;;;;;1.20;1.10;;;8.00;97.30;;;;;;5312190;26;20228;-86
2024/04/19 16:56:33;;;;;;;1.53;1.27;;;7.90;97.30;;;;;;5307332;26;20299;-84
2024/04/19 16:58:59;;;;;;;1.53;1.43;;;7.90;97.30;;;;;;5306822;26;20832;-85
2024/04/19 17:01:24;;;;;;;0.90;0.80;;;7.90;97.30;;;;;;5308647;26;20501;-85
2024/04/19 17:03:49;;;;;;;0.90;0.80;;;7.80;97.30;;;;;;5302591;26;20252;-86
2024/04/19 17:06:16;;;;;;;1.00;0.90;;;7.80;97.30;;;;;;5306989;26;20228;-85
2024/04/19 17:08:42;;;;;;;1.17;1.07;;;7.70;97.30;;;;;;5309134;26;20266;-86
2024/04/19 17:11:07;;;;;;;0.90;0.80;;;7.70;97.30;;;;;;5306079;26;20479;-85
2024/04/19 17:13:33;;;;;;;1.00;0.90;;;7.70;97.30;;;;;;5362998;26;20274;-85
2024/04/19 17:15:58;;;;;;;1.17;1.07;;;7.60;97.30;;;;;;5304652;26;20287;-85
2024/04/19 17:18:24;;;;;;;1.07;0.97;;;7.60;97.30;;;;;;5307076;26;20240;-85
2024/04/19 17:20:49;;;;;;;0.90;0.90;;;7.60;97.30;;;;;;5306231;26;20240;-85
2024/04/19 17:23:15;;;;;;;1.10;1.00;;;7.60;97.30;;;;;;5306402;26;20738;-85
2024/04/19 17:25:42;;;;;;;2.03;1.73;;;7.50;97.30;;;;;;5306119;26;20705;-86
2024/04/19 17:28:08;;;;;;;1.73;0.90;;;7.50;97.30;;;;;;5306210;26;20248;-85
2024/04/19 17:30:37;;;;;;;0.93;0.83;;;7.40;97.30;;;;;;5309758;26;21027;-86
2024/04/19 17:33:04;;;;;;;1.10;1.00;;;7.40;97.30;;;;;;5306107;26;20282;-86
2024/04/19 17:35:29;;;;;;;2.63;1.10;;;7.40;97.30;;;;;;5363521;26;20629;-84